Time;durP1;ratioP1;P1;durP2;ratioP2;P2;SDS_P1;SDS_P2;PMS_P1;PMS_P2;Temp;Humidity;BMP_temperature;BMP_pressure;BME280_temperature;BME280_humidity;BME280_pressure;Samples;Min_cycle;Max_cycle;Signal;HPM_P1;HPM_P2
2023/09/16 00:00:08;;;;;;;6.10;5.50;;;;;18.30;98379.00;;;;4935831;29;20107;-66
2023/09/16 00:02:35;;;;;;;7.90;5.38;;;;;18.10;98378.00;;;;4935383;29;20055;-66
2023/09/16 00:05:04;;;;;;;5.22;4.72;;;;;18.00;98377.00;;;;4935851;29;20051;-66
2023/09/16 00:07:34;;;;;;;5.93;5.30;;;;;18.00;98374.00;;;;4935147;29;20079;-67
2023/09/16 00:10:00;;;;;;;6.65;5.78;;;;;18.10;98382.00;;;;4935245;29;20048;-71
2023/09/16 00:12:27;;;;;;;9.13;5.97;;;;;18.10;98383.00;;;;4919777;29;20129;-66
2023/09/16 00:14:53;;;;;;;6.55;5.05;;;;;18.00;98375.00;;;;4934987;29;20055;-66
2023/09/16 00:17:21;;;;;;;5.85;4.63;;;;;18.00;98379.00;;;;4936499;29;20134;-66
2023/09/16 00:19:48;;;;;;;8.02;5.40;;;;;18.10;98381.00;;;;4936415;29;20056;-66
2023/09/16 00:22:15;;;;;;;7.32;5.53;;;;;18.10;98381.00;;;;4935984;29;20044;-66
2023/09/16 00:24:42;;;;;;;10.20;5.70;;;;;18.20;98373.00;;;;4935977;29;20083;-66
2023/09/16 00:27:09;;;;;;;6.30;5.30;;;;;18.30;98381.00;;;;4918594;29;20048;-67
2023/09/16 00:29:35;;;;;;;6.03;5.43;;;;;18.20;98380.00;;;;4934979;29;20129;-67
2023/09/16 00:32:04;;;;;;;6.07;5.47;;;;;18.30;98387.00;;;;4934977;29;20095;-67
2023/09/16 00:34:31;;;;;;;6.07;5.25;;;;;18.30;98381.00;;;;4918872;29;20059;-67
2023/09/16 00:36:58;;;;;;;6.05;4.70;;;;;18.10;98380.00;;;;4935058;29;20150;-66
2023/09/16 00:39:26;;;;;;;6.95;4.75;;;;;18.10;98377.00;;;;4935202;29;20055;-67
2023/09/16 00:41:52;;;;;;;6.75;5.43;;;;;18.00;98382.00;;;;4935022;29;20066;-66
2023/09/16 00:44:19;;;;;;;6.10;5.18;;;;;18.00;98373.00;;;;4934427;29;20044;-66
2023/09/16 00:46:46;;;;;;;5.70;4.90;;;;;18.00;98372.00;;;;4934761;29;20082;-67
2023/09/16 00:49:13;;;;;;;6.25;5.22;;;;;17.90;98372.00;;;;4934679;29;20043;-67
2023/09/16 00:51:44;;;;;;;8.68;5.18;;;;;17.80;98373.00;;;;4936063;29;20102;-68
2023/09/16 00:54:11;;;;;;;7.07;5.25;;;;;17.90;98376.00;;;;4934112;29;20505;-66
2023/09/16 00:56:39;;;;;;;7.32;5.15;;;;;17.90;98374.00;;;;4920155;29;20493;-66
2023/09/16 00:59:06;;;;;;;5.60;4.70;;;;;17.90;98373.00;;;;4936106;29;20051;-67
2023/09/16 01:01:37;;;;;;;5.72;4.90;;;;;17.80;98370.00;;;;4935984;29;20063;-65
2023/09/16 01:04:04;;;;;;;6.25;5.35;;;;;17.70;98362.00;;;;4935688;29;20067;-68
2023/09/16 01:06:31;;;;;;;9.93;5.07;;;;;17.60;98359.00;;;;4918873;29;20477;-66
2023/09/16 01:08:58;;;;;;;7.53;5.78;;;;;17.50;98361.00;;;;4936021;29;20095;-68
2023/09/16 01:11:26;;;;;;;6.30;5.50;;;;;17.50;98371.00;;;;4934745;29;20488;-66
2023/09/16 01:13:53;;;;;;;6.38;4.93;;;;;17.40;98369.00;;;;4935221;29;20099;-66
2023/09/16 01:16:34;;;;;;;6.93;5.32;;;;;17.50;98374.00;;;;4934369;29;20048;-66
2023/09/16 01:19:16;;;;;;;6.20;5.25;;;;;17.40;98375.00;;;;4935028;29;20446;-67
2023/09/16 01:21:44;;;;;;;7.57;5.32;;;;;17.30;98372.00;;;;4918217;29;20050;-67
2023/09/16 01:24:18;;;;;;;5.93;5.00;;;;;17.40;98374.00;;;;4933142;29;20082;-66
2023/09/16 01:26:46;;;;;;;6.43;5.45;;;;;17.50;98382.00;;;;4933708;29;20056;-66
2023/09/16 01:29:14;;;;;;;5.35;4.85;;;;;17.50;98384.00;;;;4933656;29;20079;-65
2023/09/16 01:31:42;;;;;;;5.97;5.38;;;;;17.40;98380.00;;;;4933817;29;20056;-66
2023/09/16 01:34:25;;;;;;;5.88;5.28;;;;;17.40;98375.00;;;;4917327;29;20568;-66
2023/09/16 01:36:55;;;;;;;6.75;5.63;;;;;17.40;98382.00;;;;4933974;29;20409;-66
2023/09/16 01:39:24;;;;;;;7.32;5.63;;;;;17.40;98382.00;;;;4934870;29;20043;-66
2023/09/16 01:41:55;;;;;;;7.63;5.53;;;;;17.40;98378.00;;;;4935136;29;20047;-67
2023/09/16 01:44:24;;;;;;;7.50;6.22;;;;;17.30;98383.00;;;;4933012;29;20078;-67
2023/09/16 01:46:55;;;;;;;7.25;5.82;;;;;17.30;98379.00;;;;4934926;29;20055;-67
2023/09/16 01:49:22;;;;;;;8.13;6.03;;;;;17.30;98374.00;;;;4933555;29;20131;-67
2023/09/16 01:51:49;;;;;;;9.27;5.47;;;;;17.20;98378.00;;;;4933732;29;20517;-67
2023/09/16 01:54:16;;;;;;;7.32;6.15;;;;;17.10;98385.00;;;;4932830;29;20488;-67
2023/09/16 01:56:44;;;;;;;7.28;5.47;;;;;17.00;98378.00;;;;4933687;29;20068;-67
2023/09/16 01:59:11;;;;;;;6.97;5.57;;;;;17.00;98383.00;;;;4933524;29;20047;-67
2023/09/16 02:01:38;;;;;;;6.70;5.78;;;;;17.10;98385.00;;;;4933590;29;20461;-67
2023/09/16 02:04:05;;;;;;;6.15;5.35;;;;;17.10;98377.00;;;;4934309;29;20127;-67
2023/09/16 02:06:31;;;;;;;6.03;5.43;;;;;17.00;98388.00;;;;4933504;29;20054;-67
2023/09/16 02:08:58;;;;;;;5.82;5.25;;;;;17.00;98389.00;;;;4933595;29;20102;-67
2023/09/16 02:11:26;;;;;;;6.65;5.75;;;;;16.90;98379.00;;;;4933296;29;20074;-67
2023/09/16 02:13:52;;;;;;;7.72;5.78;;;;;16.90;98387.00;;;;4933039;29;20475;-67
2023/09/16 02:16:19;;;;;;;8.68;5.40;;;;;16.90;98396.00;;;;4933232;29;20102;-67
2023/09/16 02:18:46;;;;;;;6.90;5.53;;;;;16.80;98398.00;;;;4917942;29;20461;-67
2023/09/16 02:21:15;;;;;;;9.05;5.93;;;;;16.80;98386.00;;;;4933672;29;20063;-66
2023/09/16 02:23:41;;;;;;;6.47;5.65;;;;;16.80;98386.00;;;;4934525;29;20056;-66
2023/09/16 02:26:08;;;;;;;8.57;5.82;;;;;16.80;98397.00;;;;4934739;29;20142;-66
2023/09/16 02:28:35;;;;;;;6.85;5.93;;;;;16.80;98394.00;;;;4934921;29;20040;-67
2023/09/16 02:31:02;;;;;;;7.68;6.05;;;;;16.80;98396.00;;;;4933298;29;20053;-66
2023/09/16 02:33:29;;;;;;;7.45;5.97;;;;;16.90;98399.00;;;;4932601;29;20501;-66
2023/09/16 02:35:57;;;;;;;8.20;5.85;;;;;17.00;98402.00;;;;4933314;29;20048;-66
2023/09/16 02:38:23;;;;;;;8.88;5.82;;;;;17.00;98398.00;;;;4933147;29;20056;-67
2023/09/16 02:40:50;;;;;;;8.70;5.78;;;;;16.90;98398.00;;;;4933217;29;20044;-67
2023/09/16 02:43:18;;;;;;;8.13;5.78;;;;;16.80;98402.00;;;;4917554;29;20048;-67
2023/09/16 02:45:44;;;;;;;6.80;5.38;;;;;16.80;98404.00;;;;4916657;29;20051;-67
2023/09/16 02:48:11;;;;;;;6.75;5.82;;;;;16.80;98389.00;;;;4933253;29;20048;-67
2023/09/16 02:50:39;;;;;;;9.25;6.78;;;;;16.80;98393.00;;;;4935729;29;20050;-67
2023/09/16 02:53:06;;;;;;;7.32;5.80;;;;;16.70;98393.00;;;;4936329;29;20398;-68
2023/09/16 02:55:33;;;;;;;6.32;5.60;;;;;16.70;98403.00;;;;4937026;29;20094;-67
2023/09/16 02:58:00;;;;;;;7.10;6.00;;;;;16.80;98397.00;;;;4920797;29;20142;-67
2023/09/16 03:00:28;;;;;;;7.15;5.60;;;;;16.70;98402.00;;;;4920782;29;20040;-67
2023/09/16 03:02:56;;;;;;;6.35;5.63;;;;;16.60;98397.00;;;;4936322;29;20055;-67
2023/09/16 03:05:23;;;;;;;7.35;5.70;;;;;16.60;98396.00;;;;4935609;29;20048;-67
2023/09/16 03:07:50;;;;;;;7.18;5.57;;;;;16.60;98396.00;;;;4936245;29;20413;-67
2023/09/16 03:10:17;;;;;;;6.25;5.45;;;;;16.60;98391.00;;;;4920520;29;20071;-67
2023/09/16 03:12:44;;;;;;;6.85;5.97;;;;;16.60;98398.00;;;;4920567;29;20074;-67
2023/09/16 03:15:11;;;;;;;6.32;5.50;;;;;16.60;98389.00;;;;4936662;29;20044;-67
2023/09/16 03:17:38;;;;;;;7.10;6.15;;;;;16.40;98386.00;;;;4920047;29;20044;-67
2023/09/16 03:20:09;;;;;;;9.38;6.97;;;;;16.40;98391.00;;;;4936153;29;20409;-67
2023/09/16 03:22:36;;;;;;;8.32;5.97;;;;;16.50;98390.00;;;;4935988;29;20468;-67
2023/09/16 03:25:03;;;;;;;6.25;5.53;;;;;16.60;98389.00;;;;4935475;29;20051;-66
2023/09/16 03:27:30;;;;;;;6.07;5.18;;;;;16.50;98395.00;;;;4935827;29;20044;-66
2023/09/16 03:29:57;;;;;;;7.70;6.03;;;;;16.40;98379.00;;;;4935856;29;20052;-66
2023/09/16 03:32:28;;;;;;;6.85;6.20;;;;;16.30;98382.00;;;;4935709;29;20051;-66
2023/09/16 03:34:56;;;;;;;8.20;5.50;;;;;16.30;98383.00;;;;4935257;29;20142;-66
2023/09/16 03:37:23;;;;;;;6.68;5.90;;;;;16.30;98374.00;;;;4936117;29;20047;-66
2023/09/16 03:39:57;;;;;;;7.93;6.07;;;;;16.20;98361.00;;;;4935741;29;20461;-66
2023/09/16 03:42:23;;;;;;;8.18;5.80;;;;;16.10;98363.00;;;;4935814;29;20048;-66
2023/09/16 03:44:50;;;;;;;7.60;5.82;;;;;15.90;98368.00;;;;4935546;29;20075;-66
2023/09/16 03:47:17;;;;;;;6.78;6.07;;;;;15.80;98363.00;;;;4920395;29;20500;-66
2023/09/16 03:49:43;;;;;;;7.45;5.68;;;;;15.80;98360.00;;;;4920393;29;20067;-66
2023/09/16 03:52:10;;;;;;;8.05;6.00;;;;;15.80;98361.00;;;;4936181;29;20422;-66
2023/09/16 03:54:37;;;;;;;6.70;5.60;;;;;15.80;98358.00;;;;4935632;29;20115;-66
2023/09/16 03:57:04;;;;;;;8.13;6.15;;;;;15.80;98359.00;;;;4936092;29;20054;-66
2023/09/16 03:59:31;;;;;;;6.72;5.88;;;;;15.80;98362.00;;;;4920549;29;20461;-66
2023/09/16 04:01:57;;;;;;;7.35;5.57;;;;;15.80;98355.00;;;;4935430;29;20497;-66
2023/09/16 04:04:24;;;;;;;6.72;6.03;;;;;15.80;98357.00;;;;4937230;29;20058;-66
2023/09/16 04:06:51;;;;;;;7.00;5.95;;;;;15.70;98346.00;;;;4938200;29;20494;-66
2023/09/16 04:09:19;;;;;;;7.60;6.68;;;;;15.70;98349.00;;;;4921030;29;20434;-66
2023/09/16 04:11:45;;;;;;;6.88;5.85;;;;;15.70;98351.00;;;;4936441;29;20625;-66
2023/09/16 04:14:12;;;;;;;6.25;5.65;;;;;15.70;98348.00;;;;4936681;29;20396;-66
2023/09/16 04:16:39;;;;;;;7.43;6.03;;;;;15.80;98342.00;;;;4920093;29;20138;-67
2023/09/16 04:19:06;;;;;;;7.95;5.95;;;;;15.70;98338.00;;;;4936782;29;20040;-66
2023/09/16 04:21:33;;;;;;;6.68;5.95;;;;;15.70;98344.00;;;;4935292;29;20044;-66
2023/09/16 04:24:00;;;;;;;6.93;5.55;;;;;15.70;98341.00;;;;4935084;29;20047;-67
2023/09/16 04:26:26;;;;;;;8.70;5.80;;;;;15.60;98333.00;;;;4935219;29;20071;-67
2023/09/16 04:28:53;;;;;;;6.85;5.70;;;;;15.60;98338.00;;;;4919372;29;20048;-67
2023/09/16 04:31:20;;;;;;;8.85;6.32;;;;;15.70;98342.00;;;;4934821;29;20048;-67
2023/09/16 04:33:47;;;;;;;6.97;5.45;;;;;15.70;98338.00;;;;4918463;29;20138;-67
2023/09/16 04:36:16;;;;;;;6.93;5.70;;;;;15.60;98335.00;;;;4934874;29;20420;-67
2023/09/16 04:38:42;;;;;;;7.28;5.55;;;;;15.70;98341.00;;;;4934587;29;20048;-67
2023/09/16 04:41:09;;;;;;;8.13;5.35;;;;;15.70;98337.00;;;;4935877;29;20501;-67
2023/09/16 04:43:36;;;;;;;6.40;5.80;;;;;15.80;98335.00;;;;4934251;29;20513;-67
2023/09/16 04:46:04;;;;;;;6.68;5.95;;;;;15.70;98335.00;;;;4919013;29;20043;-66
2023/09/16 04:48:38;;;;;;;8.35;5.90;;;;;15.70;98328.00;;;;4934456;29;20524;-67
2023/09/16 04:51:05;;;;;;;7.00;5.50;;;;;15.80;98327.00;;;;4934540;29;20054;-65
2023/09/16 04:53:33;;;;;;;8.05;5.88;;;;;15.70;98329.00;;;;4918181;29;20047;-65
2023/09/16 04:56:00;;;;;;;6.43;5.65;;;;;15.70;98324.00;;;;4934227;29;20147;-65
2023/09/16 04:58:31;;;;;;;7.50;5.90;;;;;15.70;98322.00;;;;4934096;29;20417;-65
2023/09/16 05:00:59;;;;;;;6.60;5.43;;;;;15.60;98329.00;;;;4918560;29;20134;-65
2023/09/16 05:03:26;;;;;;;6.32;5.70;;;;;15.70;98324.00;;;;4933635;29;20057;-65
2023/09/16 05:05:53;;;;;;;7.88;5.63;;;;;15.80;98326.00;;;;4934032;29;20044;-65
2023/09/16 05:08:24;;;;;;;8.25;5.95;;;;;15.70;98327.00;;;;4934129;29;20130;-65
2023/09/16 05:10:55;;;;;;;6.95;5.35;;;;;15.70;98330.00;;;;4934134;29;20103;-64
2023/09/16 05:13:23;;;;;;;8.13;5.70;;;;;15.70;98327.00;;;;4933858;29;20110;-65
2023/09/16 05:15:50;;;;;;;6.47;5.80;;;;;15.70;98331.00;;;;4933394;29;20047;-65
2023/09/16 05:18:18;;;;;;;7.60;5.15;;;;;15.70;98323.00;;;;4933915;29;20054;-65
2023/09/16 05:20:45;;;;;;;8.60;6.57;;;;;15.60;98334.00;;;;4918342;29;20521;-64
2023/09/16 05:23:13;;;;;;;8.93;6.25;;;;;15.50;98332.00;;;;4933859;29;20184;-65
2023/09/16 05:25:46;;;;;;;7.85;6.03;;;;;15.40;98335.00;;;;4933070;29;20055;-65
2023/09/16 05:28:17;;;;;;;7.22;6.20;;;;;15.50;98327.00;;;;4933927;29;20052;-65
2023/09/16 05:30:44;;;;;;;9.55;6.07;;;;;15.50;98333.00;;;;4933851;29;20504;-64
2023/09/16 05:33:13;;;;;;;7.88;5.82;;;;;15.50;98331.00;;;;4933855;29;20531;-65
2023/09/16 05:35:40;;;;;;;7.15;6.22;;;;;15.50;98329.00;;;;4934386;29;20050;-65
2023/09/16 05:38:08;;;;;;;6.72;6.03;;;;;15.40;98335.00;;;;4918090;29;20071;-64
2023/09/16 05:40:38;;;;;;;7.70;6.05;;;;;15.40;98331.00;;;;4933786;29;20074;-65
2023/09/16 05:43:05;;;;;;;8.55;6.30;;;;;15.40;98332.00;;;;4933904;29;20048;-65
2023/09/16 05:45:32;;;;;;;7.93;5.70;;;;;15.40;98335.00;;;;4935085;29;20056;-68
2023/09/16 05:48:02;;;;;;;8.95;6.38;;;;;15.50;98335.00;;;;4936180;29;20111;-64
2023/09/16 05:50:32;;;;;;;14.70;6.50;;;;;15.60;98337.00;;;;4935838;29;20054;-67
2023/09/16 05:52:58;;;;;;;9.40;5.97;;;;;15.80;98335.00;;;;4920728;29;20047;-67
2023/09/16 05:55:25;;;;;;;10.65;6.15;;;;;15.90;98340.00;;;;4919242;29;20052;-65
2023/09/16 05:57:54;;;;;;;9.07;6.15;;;;;15.90;98345.00;;;;4934757;29;20617;-66
2023/09/16 06:00:21;;;;;;;8.32;6.25;;;;;16.00;98345.00;;;;4934817;29;20039;-66
2023/09/16 06:02:49;;;;;;;8.55;6.43;;;;;16.20;98348.00;;;;4935137;29;20111;-66
2023/09/16 06:05:16;;;;;;;7.13;5.82;;;;;16.30;98351.00;;;;4935185;29;20050;-65
2023/09/16 06:07:44;;;;;;;7.60;6.15;;;;;16.30;98359.00;;;;4934264;29;20051;-65
2023/09/16 06:10:12;;;;;;;7.93;6.35;;;;;16.20;98348.00;;;;4934491;29;20052;-67
2023/09/16 06:12:39;;;;;;;10.50;6.55;;;;;16.20;98347.00;;;;4918779;29;20543;-67
2023/09/16 06:15:07;;;;;;;11.15;5.97;;;;;16.20;98346.00;;;;4917203;29;20572;-67
2023/09/16 06:17:35;;;;;;;7.75;6.18;;;;;16.30;98351.00;;;;4917703;29;20112;-67
2023/09/16 06:20:03;;;;;;;8.80;6.22;;;;;16.30;98355.00;;;;4917388;29;20051;-67
2023/09/16 06:22:30;;;;;;;10.02;6.43;;;;;16.30;98351.00;;;;4917610;29;20134;-66
2023/09/16 06:24:56;;;;;;;8.93;7.00;;;;;16.40;98351.00;;;;4933544;29;20142;-67
2023/09/16 06:27:23;;;;;;;9.77;6.75;;;;;16.50;98356.00;;;;4937133;29;20048;-66
2023/09/16 06:29:52;;;;;;;7.55;6.45;;;;;16.60;98359.00;;;;4937045;29;20069;-67
2023/09/16 06:32:20;;;;;;;11.88;6.60;;;;;16.60;98362.00;;;;4937045;29;20054;-67
2023/09/16 06:34:50;;;;;;;9.00;6.72;;;;;16.80;98358.00;;;;4921198;29;20052;-67
2023/09/16 06:37:17;;;;;;;10.48;8.25;;;;;17.00;98355.00;;;;4936930;29;20103;-65
2023/09/16 06:39:46;;;;;;;7.57;6.78;;;;;17.20;98355.00;;;;4937184;29;20087;-66
2023/09/16 06:42:15;;;;;;;9.05;7.07;;;;;17.30;98358.00;;;;4921690;29;20472;-65
2023/09/16 06:44:41;;;;;;;8.70;6.93;;;;;17.40;98360.00;;;;4937586;29;20067;-64
2023/09/16 06:47:08;;;;;;;9.48;7.70;;;;;17.40;98358.00;;;;4936757;29;20048;-65
2023/09/16 06:49:35;;;;;;;17.67;8.00;;;;;17.40;98358.00;;;;4921101;29;20047;-66
2023/09/16 06:52:02;;;;;;;8.25;7.43;;;;;17.60;98349.00;;;;4938066;29;20074;-66
2023/09/16 06:54:28;;;;;;;10.40;7.80;;;;;17.70;98354.00;;;;4935633;29;20521;-66
2023/09/16 06:56:55;;;;;;;12.25;8.18;;;;;17.60;98354.00;;;;4936591;29;20051;-66
2023/09/16 06:59:22;;;;;;;12.00;7.78;;;;;17.80;98365.00;;;;4937758;29;20114;-65
2023/09/16 07:01:48;;;;;;;10.35;7.30;;;;;18.00;98363.00;;;;4937189;29;20413;-66
2023/09/16 07:04:15;;;;;;;12.80;10.13;;;;;18.10;98360.00;;;;4935827;29;20127;-65
2023/09/16 07:06:42;;;;;;;10.48;8.85;;;;;18.30;98362.00;;;;4936312;29;20047;-64
2023/09/16 07:09:10;;;;;;;8.60;7.32;;;;;18.30;98362.00;;;;4937414;29;20052;-65
2023/09/16 07:11:37;;;;;;;12.85;7.85;;;;;18.40;98362.00;;;;4937345;29;20071;-65
2023/09/16 07:14:03;;;;;;;9.18;7.65;;;;;18.30;98365.00;;;;4936910;29;20049;-64
2023/09/16 07:16:39;;;;;;;9.25;7.75;;;;;18.20;98362.00;;;;4937061;29;20052;-64
2023/09/16 07:19:07;;;;;;;12.20;9.88;;;;;18.40;98367.00;;;;4937616;29;20032;-64
2023/09/16 07:21:34;;;;;;;9.65;7.82;;;;;18.50;98366.00;;;;4937527;29;20051;-64
2023/09/16 07:24:01;;;;;;;12.38;8.35;;;;;18.60;98376.00;;;;4936827;29;20160;-64
2023/09/16 07:26:29;;;;;;;9.23;7.35;;;;;18.70;98378.00;;;;4937405;29;20382;-65
2023/09/16 07:28:57;;;;;;;10.65;7.75;;;;;18.90;98381.00;;;;4937775;29;20048;-65
2023/09/16 07:31:23;;;;;;;11.85;8.93;;;;;19.00;98383.00;;;;4940160;29;20406;-65
2023/09/16 07:33:51;;;;;;;10.75;8.18;;;;;19.20;98384.00;;;;4937881;29;20043;-64
2023/09/16 07:36:17;;;;;;;9.63;7.90;;;;;19.20;98385.00;;;;4937246;29;20075;-65
2023/09/16 07:38:44;;;;;;;9.73;8.30;;;;;19.30;98373.00;;;;4937035;29;20134;-65
2023/09/16 07:41:11;;;;;;;10.77;8.48;;;;;19.30;98386.00;;;;4937652;29;20054;-65
2023/09/16 07:43:37;;;;;;;9.95;8.60;;;;;19.40;98374.00;;;;4937838;29;20134;-64
2023/09/16 07:46:04;;;;;;;9.45;8.55;;;;;19.40;98374.00;;;;4938975;29;20079;-64
2023/09/16 07:48:31;;;;;;;11.00;7.90;;;;;19.30;98384.00;;;;4937170;29;20051;-64
2023/09/16 07:50:58;;;;;;;8.55;7.43;;;;;19.30;98391.00;;;;4937381;29;20047;-66
2023/09/16 07:53:25;;;;;;;8.35;7.55;;;;;19.50;98391.00;;;;4937662;29;20072;-64
2023/09/16 07:55:51;;;;;;;11.13;7.68;;;;;19.70;98395.00;;;;4937255;29;20079;-64
2023/09/16 07:58:18;;;;;;;13.48;8.45;;;;;19.90;98400.00;;;;4937716;29;20130;-64
2023/09/16 08:00:44;;;;;;;9.30;8.27;;;;;19.90;98404.00;;;;4936415;29;20044;-64
2023/09/16 08:03:11;;;;;;;10.30;8.30;;;;;20.00;98405.00;;;;4941804;29;20043;-64
2023/09/16 08:05:38;;;;;;;13.57;8.07;;;;;20.10;98403.00;;;;4939557;29;20071;-65
2023/09/16 08:08:05;;;;;;;9.07;8.18;;;;;20.10;98399.00;;;;4937736;29;20044;-64
2023/09/16 08:10:31;;;;;;;11.68;8.40;;;;;20.20;98395.00;;;;4935907;29;20489;-64
2023/09/16 08:12:58;;;;;;;13.48;8.48;;;;;20.40;98402.00;;;;4937569;29;20048;-64
2023/09/16 08:15:24;;;;;;;10.00;8.40;;;;;20.40;98407.00;;;;4937413;29;20066;-64
2023/09/16 08:17:52;;;;;;;8.98;8.07;;;;;20.40;98411.00;;;;4941685;29;20067;-64
2023/09/16 08:20:20;;;;;;;10.73;7.53;;;;;20.60;98419.00;;;;4948000;29;20044;-64
2023/09/16 08:22:47;;;;;;;9.77;7.75;;;;;20.70;98418.00;;;;4947807;29;20043;-65
2023/09/16 08:25:13;;;;;;;8.93;7.88;;;;;20.80;98415.00;;;;4942951;29;20085;-64
2023/09/16 08:27:40;;;;;;;12.82;7.43;;;;;20.90;98414.00;;;;4938407;29;20565;-64
2023/09/16 08:30:07;;;;;;;11.38;10.02;;;;;21.00;98411.00;;;;4937608;29;20561;-64
2023/09/16 08:32:38;;;;;;;11.55;10.05;;;;;21.10;98406.00;;;;4921537;29;20048;-66
2023/09/16 08:35:07;;;;;;;11.38;7.97;;;;;21.10;98411.00;;;;4937091;29;20051;-63
2023/09/16 08:37:36;;;;;;;11.82;8.88;;;;;21.20;98403.00;;;;4935708;29;20576;-64
2023/09/16 08:40:03;;;;;;;12.30;8.10;;;;;21.40;98406.00;;;;4936393;29;20076;-64
2023/09/16 08:42:48;;;;;;;8.48;7.53;;;;;21.50;98409.00;;;;4937272;29;20070;-64
2023/09/16 08:45:18;;;;;;;9.15;7.70;;;;;21.70;98409.00;;;;4934222;29;20071;-64
2023/09/16 08:48:01;;;;;;;10.23;7.43;;;;;21.90;98409.00;;;;4935338;29;20052;-64
2023/09/16 08:50:30;;;;;;;10.02;7.63;;;;;22.00;98420.00;;;;4935758;29;20047;-64
2023/09/16 08:53:02;;;;;;;8.88;7.50;;;;;22.10;98419.00;;;;4935921;29;20051;-64
2023/09/16 08:55:31;;;;;;;9.40;7.32;;;;;22.30;98422.00;;;;4935789;29;20048;-65
2023/09/16 08:58:07;;;;;;;7.55;6.85;;;;;22.50;98421.00;;;;4936195;29;20048;-65
2023/09/16 09:00:36;;;;;;;9.00;6.70;;;;;22.60;98421.00;;;;4936197;29;20051;-65
2023/09/16 09:03:03;;;;;;;9.75;8.23;;;;;22.70;98421.00;;;;4935470;29;20051;-64
2023/09/16 09:05:33;;;;;;;9.90;7.07;;;;;22.80;98426.00;;;;4935069;29;20052;-65
2023/09/16 09:07:59;;;;;;;9.65;6.88;;;;;22.90;98417.00;;;;4937426;29;20405;-66
2023/09/16 09:10:26;;;;;;;13.65;7.32;;;;;23.10;98429.00;;;;4940503;29;20046;-65
2023/09/16 09:12:54;;;;;;;8.68;6.80;;;;;23.20;98429.00;;;;4936657;29;20069;-65
2023/09/16 09:15:21;;;;;;;9.00;7.07;;;;;23.20;98430.00;;;;4938010;29;20056;-65
2023/09/16 09:17:57;;;;;;;14.23;7.32;;;;;23.30;98433.00;;;;4937848;29;20497;-65
2023/09/16 09:20:28;;;;;;;9.20;6.65;;;;;23.50;98435.00;;;;4921921;29;20047;-65
2023/09/16 09:22:56;;;;;;;10.27;6.95;;;;;23.60;98433.00;;;;4936701;29;20098;-65
2023/09/16 09:25:26;;;;;;;11.00;7.13;;;;;23.70;98434.00;;;;4936624;29;20129;-65
2023/09/16 09:27:55;;;;;;;11.23;7.72;;;;;23.70;98438.00;;;;4936019;29;20150;-66
2023/09/16 09:30:28;;;;;;;9.27;6.80;;;;;23.80;98438.00;;;;4936227;29;20050;-65
2023/09/16 09:32:55;;;;;;;7.53;6.72;;;;;23.80;98442.00;;;;4934227;29;20164;-65
2023/09/16 09:35:23;;;;;;;11.90;6.57;;;;;23.90;98439.00;;;;4933239;29;20051;-65
2023/09/16 09:37:50;;;;;;;9.57;7.10;;;;;24.00;98427.00;;;;4935007;29;20051;-66
2023/09/16 09:40:18;;;;;;;7.68;6.88;;;;;24.10;98433.00;;;;4933660;29;20063;-65
2023/09/16 09:42:50;;;;;;;8.13;6.43;;;;;24.20;98429.00;;;;4933840;29;20086;-66
2023/09/16 09:45:19;;;;;;;8.85;6.70;;;;;24.30;98429.00;;;;4934118;29;20044;-65
2023/09/16 09:47:48;;;;;;;7.68;6.70;;;;;24.50;98418.00;;;;4934855;29;20076;-64
2023/09/16 09:50:17;;;;;;;6.47;5.75;;;;;24.60;98411.00;;;;4935150;29;20048;-64
2023/09/16 09:52:49;;;;;;;6.72;6.03;;;;;24.50;98416.00;;;;4933926;29;20111;-65
2023/09/16 09:55:17;;;;;;;8.60;7.45;;;;;24.50;98418.00;;;;4934313;29;20103;-64
2023/09/16 09:57:45;;;;;;;6.90;5.90;;;;;24.60;98420.00;;;;4935011;29;20048;-64
2023/09/16 10:00:17;;;;;;;5.80;5.22;;;;;24.80;98419.00;;;;4935966;29;20043;-64
2023/09/16 10:02:45;;;;;;;6.90;6.20;;;;;25.00;98407.00;;;;4938716;29;20051;-64
2023/09/16 10:05:15;;;;;;;6.35;5.68;;;;;25.10;98406.00;;;;4936890;29;20062;-64
2023/09/16 10:07:43;;;;;;;7.18;5.93;;;;;25.20;98409.00;;;;4937762;29;20052;-65
2023/09/16 10:10:20;;;;;;;6.47;5.88;;;;;25.30;98410.00;;;;4937717;29;20125;-65
2023/09/16 10:12:50;;;;;;;7.18;5.35;;;;;25.40;98408.00;;;;4938811;29;20412;-65
2023/09/16 10:15:23;;;;;;;5.97;5.30;;;;;25.60;98411.00;;;;4938153;29;20141;-65
2023/09/16 10:17:50;;;;;;;5.93;5.32;;;;;25.70;98402.00;;;;4937410;29;20545;-66
2023/09/16 10:20:17;;;;;;;7.25;5.65;;;;;25.70;98412.00;;;;4938808;29;20382;-65
2023/09/16 10:22:44;;;;;;;7.20;5.43;;;;;25.80;98408.00;;;;4938607;29;20066;-65
2023/09/16 10:25:12;;;;;;;6.18;5.15;;;;;26.00;98403.00;;;;4938025;29;20118;-64
2023/09/16 10:27:55;;;;;;;5.82;5.32;;;;;26.10;98408.00;;;;4938736;29;20063;-63
2023/09/16 10:30:23;;;;;;;5.78;5.22;;;;;26.00;98411.00;;;;4938385;29;20052;-64
2023/09/16 10:32:50;;;;;;;6.07;5.47;;;;;26.00;98407.00;;;;4938494;29;20393;-64
2023/09/16 10:35:17;;;;;;;5.93;5.18;;;;;26.10;98408.00;;;;4937668;29;20047;-64
2023/09/16 10:37:44;;;;;;;6.13;5.53;;;;;26.30;98408.00;;;;4937003;29;20131;-64
2023/09/16 10:40:13;;;;;;;6.15;5.47;;;;;26.40;98401.00;;;;4937366;29;20058;-64
2023/09/16 10:42:41;;;;;;;5.15;4.65;;;;;26.60;98406.00;;;;4938364;29;20063;-64
2023/09/16 10:45:11;;;;;;;5.03;4.63;;;;;26.60;98407.00;;;;4937477;29;20048;-64
2023/09/16 10:47:39;;;;;;;5.30;4.80;;;;;26.60;98407.00;;;;4937768;29;20043;-64
2023/09/16 10:50:06;;;;;;;5.07;4.57;;;;;26.80;98406.00;;;;4938106;29;20509;-64
2023/09/16 10:52:49;;;;;;;4.65;4.25;;;;;27.00;98393.00;;;;4937830;29;20048;-64
2023/09/16 10:55:36;;;;;;;;;;;;;27.10;98392.00;;;;4936203;29;20146;-64
2023/09/16 10:58:09;;;;;;;4.75;4.30;;;;;27.20;98399.00;;;;4937707;29;19923;-65
2023/09/16 11:00:40;;;;;;;5.25;4.80;;;;;27.30;98392.00;;;;4937519;29;20044;-65
2023/09/16 11:03:13;;;;;;;4.57;4.18;;;;;27.30;98394.00;;;;4936201;29;20103;-65
2023/09/16 11:05:40;;;;;;;4.65;4.25;;;;;27.40;98408.00;;;;4937017;29;20052;-65
2023/09/16 11:08:08;;;;;;;7.30;4.72;;;;;27.40;98398.00;;;;4937462;29;20053;-64
2023/09/16 11:10:36;;;;;;;5.05;4.65;;;;;27.30;98391.00;;;;4937027;29;20489;-65
2023/09/16 11:13:03;;;;;;;5.57;4.72;;;;;27.40;98380.00;;;;4937445;29;20047;-65
2023/09/16 11:15:34;;;;;;;5.35;4.65;;;;;27.50;98400.00;;;;4936891;29;20044;-65
2023/09/16 11:18:01;;;;;;;4.72;4.32;;;;;27.50;98396.00;;;;4937279;29;20048;-65
2023/09/16 11:20:31;;;;;;;4.75;4.28;;;;;27.50;98392.00;;;;4937242;29;20041;-64
2023/09/16 11:23:00;;;;;;;4.50;4.10;;;;;27.60;98402.00;;;;4937333;29;20051;-65
2023/09/16 11:25:35;;;;;;;5.60;4.15;;;;;27.80;98400.00;;;;4937146;29;20138;-65
2023/09/16 11:28:03;;;;;;;5.00;4.60;;;;;27.80;98396.00;;;;4936224;29;20055;-65
2023/09/16 11:30:32;;;;;;;5.40;4.80;;;;;28.00;98395.00;;;;4937544;29;20040;-65
2023/09/16 11:32:58;;;;;;;5.63;4.40;;;;;28.20;98387.00;;;;4937123;29;20126;-65
2023/09/16 11:35:28;;;;;;;4.97;4.50;;;;;28.30;98393.00;;;;4936386;29;20043;-65
2023/09/16 11:37:56;;;;;;;4.82;4.32;;;;;28.30;98382.00;;;;4937047;29;20127;-64
2023/09/16 11:40:31;;;;;;;4.95;4.55;;;;;28.30;98377.00;;;;4936876;29;20040;-65
2023/09/16 11:42:59;;;;;;;4.90;4.45;;;;;28.50;98379.00;;;;4937022;29;20515;-66
2023/09/16 11:45:28;;;;;;;4.35;3.95;;;;;28.70;98377.00;;;;4934627;29;20052;-65
2023/09/16 11:47:54;;;;;;;6.35;4.75;;;;;28.80;98380.00;;;;4935642;29;20047;-65
2023/09/16 11:50:26;;;;;;;4.13;3.72;;;;;28.90;98377.00;;;;4936654;29;20044;-65
2023/09/16 11:52:53;;;;;;;5.70;4.93;;;;;29.10;98369.00;;;;4935585;29;20071;-65
2023/09/16 11:55:20;;;;;;;4.63;4.10;;;;;29.20;98372.00;;;;4936025;29;20123;-65
2023/09/16 11:57:48;;;;;;;4.40;4.00;;;;;29.20;98365.00;;;;4937973;29;20052;-64
2023/09/16 12:00:16;;;;;;;4.25;3.85;;;;;29.00;98359.00;;;;4935579;29;20404;-64
2023/09/16 12:02:43;;;;;;;6.78;4.03;;;;;28.90;98353.00;;;;4936603;29;20068;-67
2023/09/16 12:05:11;;;;;;;4.95;4.25;;;;;28.90;98355.00;;;;4934981;29;20066;-66
2023/09/16 12:07:38;;;;;;;4.28;3.88;;;;;28.90;98356.00;;;;4936500;29;20103;-66
2023/09/16 12:10:06;;;;;;;4.57;3.97;;;;;28.80;98347.00;;;;4936448;29;20122;-64
2023/09/16 12:12:33;;;;;;;4.15;3.75;;;;;28.80;98347.00;;;;4934992;29;20058;-65
2023/09/16 12:15:01;;;;;;;4.30;3.90;;;;;28.90;98347.00;;;;4935582;29;20129;-65
2023/09/16 12:17:28;;;;;;;3.95;3.65;;;;;29.00;98341.00;;;;4936177;29;20047;-66
2023/09/16 12:19:56;;;;;;;4.40;3.67;;;;;29.00;98341.00;;;;4934821;29;20052;-65